sim
Sign-in with your pilot id or email,
or register
Callsign
Passwort

Schedule Details

Flight Number: RYR8968 (5)
Departure: Athens Eleftherios Venizelos (LGAV) at 16:40
Arrival: Thessaloniki International Airport (LGTS) at 17:40
Route: Ryanair Passenger Schedule. Enter filed route here before submitting Pirep.

Weather Information
Getting current METAR information for LGAV 211450Z 07009KT 9999 FEW030 14/07 Q1022 NOSIG
Getting current METAR information for LGTS 211450Z 34007KT CAVOK 16/00 Q1022 NOSIG

Schedule Frequency

Route Map